FredonyerEastRWIS Atmospheric Data: 01/13/2018 Summary  Detailed Graphs  Station List

  Temperature     Wind Precipitation Visibility
Timestamp Air Wet
Bulb
Dew-
point
24-hr
Max
24-hr
Min
Relative
Humidity
Atmospheric
Pressure
Avg
Speed
Avg
Dir
Spot
Speed
Spot
Dir
Max
Speed
Max
Dir
  Rate Situation Start End 1 hr 3 hr 6 hr 12 hr 24 hr   Situation
Date Time °F °F °F °F °F % in Hg mph ° mph ° mph ° Y/N in/hr text Date Time Date Time in in in in in mi text
01/13/2018 12:08 AM 27.14 24.62 18.50 50.72 27.14 69.0 Not Reported 0.00 NW 0.00 NW 0.00 x x x Other 01/10/2018 07:44 PM 01/10/2018 07:45 PM x x x x x Not Reported Not Reported
01/13/2018 12:23 AM 27.14 24.62 18.50 50.72 27.14 69.0 Not Reported 0.00 NW 0.00 NW 0.00 x x x Other 01/10/2018 07:44 PM 01/10/2018 07:45 PM x x x x x Not Reported Not Reported
01/13/2018 12:38 AM 26.96 24.44 18.32 50.72 26.96 69.0 Not Reported 0.00 NW 0.00 NW 0.22 NW x x Other 01/10/2018 07:44 PM 01/10/2018 07:45 PM x x x x x Not Reported Not Reported
01/13/2018 12:53 AM 26.96 24.44 18.32 50.72 26.96 69.0 Not Reported 0.00 NW 0.00 NW 0.00 x x x Other 01/10/2018 07:44 PM 01/10/2018 07:45 PM x x x x x Not Reported Not Reported
01/13/2018 01:08 AM 27.14 24.44 18.50 50.72 26.78 69.0 Not Reported 0.00 NW 0.00 NW 0.67 NW x x Other 01/10/2018 07:44 PM 01/10/2018 07:45 PM x x x x x Not Reported Not Reported
01/13/2018 01:23 AM 26.96 24.44 18.32 50.72 26.78 69.0 Not Reported 0.00 NW 0.00 NW 0.00 x x x Other 01/10/2018 07:44 PM 01/10/2018 07:45 PM x x x x x Not Reported Not Reported
01/13/2018 01:38 AM 27.14 24.44 18.50 50.72 26.78 69.0 Not Reported 0.00 N 0.00 N 1.57 NW x x Other 01/10/2018 07:44 PM 01/10/2018 07:45 PM x x x x x Not Reported Not Reported
01/13/2018 01:53 AM 26.78 24.26 18.32 50.72 26.78 69.0 Not Reported 0.00 NE 0.00 NE 0.00 x x x Other 01/10/2018 07:44 PM 01/10/2018 07:45 PM x x x x x Not Reported Not Reported
01/13/2018 02:08 AM 26.78 24.26 18.32 50.72 26.60 69.0 Not Reported 0.22 N 0.67 N 0.89 N x x Other 01/10/2018 07:44 PM 01/10/2018 07:45 PM x x x x x Not Reported Not Reported
01/13/2018 02:23 AM 26.60 24.08 18.14 50.72 26.60 69.0 Not Reported 0.00 N 0.00 N 0.00 x x x Other 01/10/2018 07:44 PM 01/10/2018 07:45 PM x x x x x Not Reported Not Reported
01/13/2018 02:38 AM 26.78 24.26 18.32 50.72 26.42 69.0 Not Reported 0.00 N 0.00 N 0.00 x x x Other 01/10/2018 07:44 PM 01/10/2018 07:45 PM x x x x x Not Reported Not Reported
01/13/2018 02:53 AM 26.42 24.08 17.96 50.72 26.24 69.0 Not Reported 0.00 N 0.00 N 0.00 x x x Other 01/10/2018 07:44 PM 01/10/2018 07:45 PM x x x x x Not Reported Not Reported
01/13/2018 03:09 AM 26.24 23.90 17.78 50.72 26.24 69.0 Not Reported 0.00 N 0.00 N 0.00 x x x Other 01/10/2018 07:44 PM 01/10/2018 07:45 PM x x x x x Not Reported Not Reported
01/13/2018 03:23 AM 26.24 24.08 17.78 50.72 26.06 69.0 Not Reported 0.00 N 0.00 N 0.00 x x x Other 01/10/2018 07:44 PM 01/10/2018 07:45 PM x x x x x Not Reported Not Reported
01/13/2018 03:38 AM 26.24 23.90 17.78 50.72 26.06 69.0 Not Reported 0.00 N 0.00 N 0.00 x x x Other 01/10/2018 07:44 PM 01/10/2018 07:45 PM x x x x x Not Reported Not Reported
01/13/2018 03:53 AM 26.42 23.90 17.78 50.72 26.06 69.0 Not Reported 0.00 N 0.00 N 0.00 x x x Other 01/10/2018 07:44 PM 01/10/2018 07:45 PM x x x x x Not Reported Not Reported
01/13/2018 04:08 AM 26.24 23.90 17.78 50.72 26.06 69.0 Not Reported 0.00 NE 0.00 NE 0.00 x x x Other 01/10/2018 07:44 PM 01/10/2018 07:45 PM x x x x x Not Reported Not Reported
01/13/2018 04:23 AM 26.42 24.08 17.96 50.72 26.06 69.0 Not Reported 0.00 E 0.00 E 0.00 x x x Other 01/10/2018 07:44 PM 01/10/2018 07:45 PM x x x x x Not Reported Not Reported
01/13/2018 04:38 AM 26.06 23.72 17.60 50.72 26.06 69.0 Not Reported 0.00 N 0.00 N 0.22 N x x Other 01/10/2018 07:44 PM 01/10/2018 07:45 PM x x x x x Not Reported Not Reported
01/13/2018 04:53 AM 26.06 23.72 17.60 50.72 26.06 69.0 Not Reported 0.00 NE 0.00 NE 0.00 x x x Other 01/10/2018 07:44 PM 01/10/2018 07:45 PM x x x x x Not Reported Not Reported
01/13/2018 05:08 AM 26.06 23.54 17.42 50.72 26.06 69.0 Not Reported 0.45 NW 0.22 NW 1.12 NW x x Other 01/10/2018 07:44 PM 01/10/2018 07:45 PM x x x x x Not Reported Not Reported
01/13/2018 05:23 AM 26.06 23.54 17.42 50.72 25.88 69.0 Not Reported 0.00 NW 0.00 NW 0.00 x x x Other 01/10/2018 07:44 PM 01/10/2018 07:45 PM x x x x x Not Reported Not Reported
01/13/2018 05:38 AM 25.88 23.36 17.24 50.72 25.88 69.0 Not Reported 0.00 NW 0.00 NW 0.00 x x x Other 01/10/2018 07:44 PM 01/10/2018 07:45 PM x x x x x Not Reported Not Reported
01/13/2018 05:53 AM 25.88 23.36 17.24 50.72 25.88 69.0 Not Reported 0.00 NW 0.00 NW 0.00 x x x Other 01/10/2018 07:44 PM 01/10/2018 07:45 PM x x x x x Not Reported Not Reported
01/13/2018 06:08 AM 25.88 23.36 17.24 50.72 25.70 69.0 Not Reported 0.00 N 0.00 N 0.22 NW x x Other 01/10/2018 07:44 PM 01/10/2018 07:45 PM x x x x x Not Reported Not Reported
01/13/2018 06:23 AM 25.52 23.36 16.88 50.72 25.52 69.0 Not Reported 0.00 N 0.00 N 0.00 x x x Other 01/10/2018 07:44 PM 01/10/2018 07:45 PM x x x x x Not Reported Not Reported
01/13/2018 06:38 AM 25.52 23.18 16.88 50.72 25.52 69.0 Not Reported 0.00 N 0.00 N 0.00 x x x Other 01/10/2018 07:44 PM 01/10/2018 07:45 PM x x x x x Not Reported Not Reported
01/13/2018 06:53 AM 25.34 23.00 16.70 50.72 25.34 69.0 Not Reported 0.00 N 0.00 N 0.00 x x x Other 01/10/2018 07:44 PM 01/10/2018 07:45 PM x x x x x Not Reported Not Reported
01/13/2018 07:09 AM 25.34 23.00 16.70 50.72 25.16 69.0 Not Reported 0.00 N 0.00 N 0.00 x x x Other 01/10/2018 07:44 PM 01/10/2018 07:45 PM x x x x x Not Reported Not Reported
01/13/2018 07:23 AM 25.70 23.36 17.06 50.72 25.16 69.0 Not Reported 0.00 N 0.00 N 1.12 N x x Other 01/10/2018 07:44 PM 01/10/2018 07:45 PM x x x x x Not Reported Not Reported
01/13/2018 07:38 AM 25.52 23.18 16.88 50.72 25.16 69.0 Not Reported 0.22 N 0.22 N 0.67 N x x Other 01/10/2018 07:44 PM 01/10/2018 07:45 PM x x x x x Not Reported Not Reported
01/13/2018 07:53 AM 25.70 23.36 17.06 50.72 25.16 69.0 Not Reported 0.00 N 0.00 N 0.00 x x x Other 01/10/2018 07:44 PM 01/10/2018 07:45 PM x x x x x Not Reported Not Reported
01/13/2018 08:09 AM 26.06 23.36 17.42 50.72 25.16 69.0 Not Reported 0.00 N 0.00 N 0.00 x x x Other 01/10/2018 07:44 PM 01/10/2018 07:45 PM x x x x x Not Reported Not Reported
01/13/2018 08:23 AM 26.96 24.44 18.32 50.72 25.16 69.0 Not Reported 0.00 N 0.00 N 0.00 x x x Other 01/10/2018 07:44 PM 01/10/2018 07:45 PM x x x x x Not Reported Not Reported
01/13/2018 08:38 AM 29.12 26.42 20.30 50.72 25.16 69.0 Not Reported 0.00 NE 0.00 NE 0.00 x x x Other 01/10/2018 07:44 PM 01/10/2018 07:45 PM x x x x x Not Reported Not Reported
01/13/2018 08:53 AM 31.10 28.22 22.28 50.72 25.16 69.0 Not Reported 0.00 E 0.00 NE 0.00 x No x No Precipitation 01/10/2018 07:44 PM 01/10/2018 07:45 PM x x x x x Not Reported Not Reported
01/13/2018 09:08 AM 33.08 30.20 24.26 50.72 25.16 69.0 Not Reported 0.00 E 0.00 E 0.89 E No x No Precipitation 01/13/2018 08:58 AM 01/13/2018 08:59 AM x x x x x Not Reported Not Reported
01/13/2018 09:23 AM 35.24 32.00 26.24 50.72 25.16 69.0 Not Reported 1.57 NE 2.01 NE 3.58 N No x No Precipitation 01/13/2018 08:58 AM 01/13/2018 08:59 AM x x x x x Not Reported Not Reported
01/13/2018 09:38 AM 36.86 33.62 27.68 50.72 25.16 68.0 Not Reported 0.22 E 0.00 N 5.37 NE No x No Precipitation 01/13/2018 08:58 AM 01/13/2018 08:59 AM x x x x x Not Reported Not Reported
01/13/2018 09:53 AM 36.32 32.54 25.16 50.72 25.16 63.0 Not Reported 2.24 S 1.79 S 4.92 S No x No Precipitation 01/13/2018 08:58 AM 01/13/2018 08:59 AM x x x x x Not Reported Not Reported
01/13/2018 10:08 AM 38.12 33.62 24.08 50.72 25.16 56.0 Not Reported 2.01 SE 2.68 SE 4.47 S No x No Precipitation 01/13/2018 08:58 AM 01/13/2018 08:59 AM x x x x x Not Reported Not Reported
01/13/2018 10:23 AM 41.00 35.24 22.82 50.72 25.16 47.0 Not Reported 1.57 NE 2.01 NE 3.36 E No x No Precipitation 01/13/2018 08:58 AM 01/13/2018 08:59 AM x x x x x Not Reported Not Reported
01/13/2018 10:38 AM 41.72 35.24 20.12 50.72 25.16 41.0 Not Reported 2.46 SE 2.01 E 6.49 S No x No Precipitation 01/13/2018 08:58 AM 01/13/2018 08:59 AM x x x x x Not Reported Not Reported
01/13/2018 10:53 AM 43.16 36.14 19.94 50.72 25.16 38.0 Not Reported 2.01 N 3.13 NE 5.14 S No x No Precipitation 01/13/2018 08:58 AM 01/13/2018 08:59 AM x x x x x Not Reported Not Reported
01/13/2018 11:08 AM 43.52 36.32 19.04 50.72 25.16 36.0 Not Reported 3.36 SE 6.71 S 8.28 SE No x No Precipitation 01/13/2018 08:58 AM 01/13/2018 08:59 AM x x x x x Not Reported Not Reported
01/13/2018 11:23 AM 44.78 37.22 18.86 50.72 25.16 35.0 Not Reported 3.58 S 2.46 SE 6.26 SE No x No Precipitation 01/13/2018 08:58 AM 01/13/2018 08:59 AM x x x x x Not Reported Not Reported
01/13/2018 11:38 AM 44.60 37.04 18.50 50.72 25.16 34.0 Not Reported 3.13 S 1.79 S 8.28 E No x No Precipitation 01/13/2018 08:58 AM 01/13/2018 08:59 AM x x x x x Not Reported Not Reported
01/13/2018 11:53 AM 45.50 37.58 18.86 50.72 25.16 34.0 Not Reported 1.79 E 4.70 SE 6.93 S No x No Precipitation 01/13/2018 08:58 AM 01/13/2018 08:59 AM x x x x x Not Reported Not Reported
01/13/2018 12:08 PM 45.68 37.76 18.68 50.72 25.16 33.0 Not Reported 1.57 N 1.57 SE 7.61 S No x No Precipitation 01/13/2018 08:58 AM 01/13/2018 08:59 AM x x x x x Not Reported Not Reported
01/13/2018 12:23 PM 46.22 38.12 18.32 50.72 25.16 32.0 Not Reported 3.80 S 1.57 SE 8.28 SE No x No Precipitation 01/13/2018 08:58 AM 01/13/2018 08:59 AM x x x x x Not Reported Not Reported
01/13/2018 12:38 PM 47.12 38.84 18.32 50.72 25.16 31.0 Not Reported 2.91 NE 1.34 SE 6.71 NE No x No Precipitation 01/13/2018 08:58 AM 01/13/2018 08:59 AM x x x x x Not Reported Not Reported
01/13/2018 12:53 PM 46.76 38.48 17.78 50.72 25.16 30.0 Not Reported 2.46 NE 1.34 E 7.38 SE No x No Precipitation 01/13/2018 08:58 AM 01/13/2018 08:59 AM x x x x x Not Reported Not Reported
01/13/2018 01:08 PM 47.12 38.66 17.60 50.72 25.16 30.0 Not Reported 2.01 SE 3.13 S 8.05 S No x No Precipitation 01/13/2018 08:58 AM 01/13/2018 08:59 AM x x x x x Not Reported Not Reported
01/13/2018 01:23 PM 46.76 38.48 17.24 50.72 25.16 30.0 Not Reported 2.91 SE 0.22 NW 10.51 SE No x No Precipitation 01/13/2018 08:58 AM 01/13/2018 08:59 AM x x x x x Not Reported Not Reported
01/13/2018 01:38 PM 48.20 39.56 17.24 50.72 25.16 28.0 Not Reported 3.58 SE 4.47 SE 7.61 SE No x No Precipitation 01/13/2018 08:58 AM 01/13/2018 08:59 AM x x x x x Not Reported Not Reported
01/13/2018 01:53 PM 48.20 39.38 16.88 50.72 25.16 28.0 Not Reported 3.36 SE 4.92 SE 6.93 E No x No Precipitation 01/13/2018 08:58 AM 01/13/2018 08:59 AM x x x x x Not Reported Not Reported
01/13/2018 02:08 PM 46.76 38.48 16.88 50.72 25.16 29.0 Not Reported 3.58 SE 2.46 S 5.82 S No x No Precipitation 01/13/2018 08:58 AM 01/13/2018 08:59 AM x x x x x Not Reported Not Reported
01/13/2018 02:23 PM 46.94 38.66 16.88 50.72 25.16 29.0 Not Reported 2.24 E 0.00 NE 7.61 S No x No Precipitation 01/13/2018 08:58 AM 01/13/2018 08:59 AM x x x x x Not Reported Not Reported
01/13/2018 02:38 PM 47.30 38.84 17.06 50.72 25.16 29.0 Not Reported 1.12 E 1.57 SE 5.59 SE No x No Precipitation 01/13/2018 08:58 AM 01/13/2018 08:59 AM x x x x x Not Reported Not Reported
01/13/2018 02:53 PM 48.20 39.56 17.06 50.72 25.16 28.0 Not Reported 2.91 E 4.03 NE 8.05 N No x No Precipitation 01/13/2018 08:58 AM 01/13/2018 08:59 AM x x x x x Not Reported Not Reported
01/13/2018 03:08 PM 48.20 39.56 17.06 48.74 25.16 28.0 Not Reported 0.89 E 0.89 SE 6.49 E No x No Precipitation 01/13/2018 08:58 AM 01/13/2018 08:59 AM x x x x x Not Reported Not Reported
01/13/2018 03:23 PM 48.20 39.38 16.88 48.74 25.16 28.0 Not Reported 2.24 NE 2.46 N 6.26 N No x No Precipitation 01/13/2018 08:58 AM 01/13/2018 08:59 AM x x x x x Not Reported Not Reported
01/13/2018 03:38 PM 47.48 38.84 16.52 48.74 25.16 28.0 Not Reported 3.58 N 1.79 NE 7.83 N No x No Precipitation 01/13/2018 08:58 AM 01/13/2018 08:59 AM x x x x x Not Reported Not Reported
01/13/2018 03:53 PM 47.30 38.84 16.52 48.74 25.16 28.0 Not Reported 2.24 NE 4.03 N 5.82 NW No x No Precipitation 01/13/2018 08:58 AM 01/13/2018 08:59 AM x x x x x Not Reported Not Reported
01/13/2018 04:09 PM 45.32 37.40 15.98 48.74 25.16 30.0 Not Reported 1.57 N 0.89 N 4.47 N No x No Precipitation 01/13/2018 08:58 AM 01/13/2018 08:59 AM x x x x x Not Reported Not Reported
01/13/2018 04:23 PM 43.88 36.32 16.16 48.74 25.16 32.0 Not Reported 1.79 E 3.13 NW 4.92 NW No x No Precipitation 01/13/2018 08:58 AM 01/13/2018 08:59 AM x x x x x Not Reported Not Reported
01/13/2018 04:38 PM 42.44 35.24 16.16 48.74 25.16 34.0 Not Reported 1.12 NW 1.12 N 2.91 NE No x No Precipitation 01/13/2018 08:58 AM 01/13/2018 08:59 AM x x x x x Not Reported Not Reported
01/13/2018 04:53 PM 40.28 33.62 16.70 48.74 25.16 37.0 Not Reported 1.79 NE 2.01 NE 4.25 NE No x No Precipitation 01/13/2018 08:58 AM 01/13/2018 08:59 AM x x x x x Not Reported Not Reported
01/13/2018 05:08 PM 38.30 32.18 16.88 48.74 25.16 41.0 Not Reported 0.45 N 0.00 N 1.57 SW No x No Precipitation 01/13/2018 08:58 AM 01/13/2018 08:59 AM x x x x x Not Reported Not Reported
01/13/2018 05:23 PM 36.50 31.10 17.24 48.74 25.16 45.0 Not Reported 0.00 W 0.00 SW 1.34 N No x No Precipitation 01/13/2018 08:58 AM 01/13/2018 08:59 AM x x x x x Not Reported Not Reported
01/13/2018 05:38 PM 35.24 30.20 17.78 48.74 25.16 48.0 Not Reported 0.22 N 0.89 N 1.57 N No x No Precipitation 01/13/2018 08:58 AM 01/13/2018 08:59 AM x x x x x Not Reported Not Reported
01/13/2018 05:53 PM 33.98 29.48 18.32 48.74 25.16 52.0 Not Reported 0.00 SW 0.00 SW 0.00 x No x No Precipitation 01/13/2018 08:58 AM 01/13/2018 08:59 AM x x x x x Not Reported Not Reported
01/13/2018 06:08 PM 33.08 28.94 18.68 48.74 25.16 54.0 Not Reported 0.00 N 0.00 NW 0.22 NW No x No Precipitation 01/13/2018 08:58 AM 01/13/2018 08:59 AM x x x x x Not Reported Not Reported
01/13/2018 06:23 PM 32.18 28.22 18.86 48.74 25.16 57.0 Not Reported 0.00 NW 0.00 NW 1.34 N No x No Precipitation 01/13/2018 08:58 AM 01/13/2018 08:59 AM x x x x x Not Reported Not Reported
01/13/2018 06:38 PM 31.64 27.86 19.04 48.74 25.16 59.0 Not Reported 0.00 NW 0.00 NW 1.12 NW No x No Precipitation 01/13/2018 08:58 AM 01/13/2018 08:59 AM x x x x x Not Reported Not Reported
01/13/2018 06:53 PM 31.10 27.68 19.22 48.74 25.16 60.0 Not Reported 0.45 N 0.00 N 1.12 N No x No Precipitation 01/13/2018 08:58 AM 01/13/2018 08:59 AM x x x x x Not Reported Not Reported
01/13/2018 07:08 PM 30.74 27.32 19.40 48.74 25.16 62.0 Not Reported 0.00 N 0.00 N 1.12 N No x No Precipitation 01/13/2018 08:58 AM 01/13/2018 08:59 AM x x x x x Not Reported Not Reported
01/13/2018 07:23 PM 30.56 27.32 19.58 48.74 25.16 63.0 Not Reported 0.00 S 0.00 S 1.34 NW No x No Precipitation 01/13/2018 08:58 AM 01/13/2018 08:59 AM x x x x x Not Reported Not Reported
01/13/2018 07:38 PM 30.20 26.78 19.40 48.74 25.16 64.0 Not Reported 0.00 NW 0.00 NW 0.22 NW No x No Precipitation 01/13/2018 08:58 AM 01/13/2018 08:59 AM x x x x x Not Reported Not Reported
01/13/2018 07:53 PM 30.02 26.96 19.76 48.74 25.16 65.0 Not Reported 0.00 NW 0.00 W 2.46 W No x No Precipitation 01/13/2018 08:58 AM 01/13/2018 08:59 AM x x x x x Not Reported Not Reported
01/13/2018 08:08 PM 29.66 26.78 19.58 48.74 25.16 65.0 Not Reported 1.12 N 0.89 N 1.57 N No x No Precipitation 01/13/2018 08:58 AM 01/13/2018 08:59 AM x x x x x Not Reported Not Reported
01/13/2018 08:23 PM 29.66 26.78 19.76 48.74 25.16 66.0 Not Reported 0.00 SW 0.00 S 1.34 S No x No Precipitation 01/13/2018 08:58 AM 01/13/2018 08:59 AM x x x x x Not Reported Not Reported
01/13/2018 08:38 PM 29.48 26.60 19.94 48.74 25.16 66.0 Not Reported 0.00 N 0.00 N 1.57 N No x No Precipitation 01/13/2018 08:58 AM 01/13/2018 08:59 AM x x x x x Not Reported Not Reported
01/13/2018 08:53 PM 29.48 26.60 20.12 48.74 25.16 67.0 Not Reported 0.00 NW 0.00 NW 1.79 N No x No Precipitation 01/13/2018 08:58 AM 01/13/2018 08:59 AM x x x x x Not Reported Not Reported
01/13/2018 09:08 PM 29.30 26.42 19.76 48.74 25.16 67.0 Not Reported 0.00 NW 0.00 NW 0.00 x No x No Precipitation 01/13/2018 08:58 AM 01/13/2018 08:59 AM x x x x x Not Reported Not Reported
01/13/2018 09:23 PM 28.94 26.24 19.58 48.74 25.16 67.0 Not Reported 0.00 NW 0.00 NW 0.00 x No x No Precipitation 01/13/2018 08:58 AM 01/13/2018 08:59 AM x x x x x Not Reported Not Reported
01/13/2018 09:38 PM 28.58 25.88 19.40 48.74 25.16 67.0 Not Reported 0.22 NW 0.89 NW 1.12 NW No x No Precipitation 01/13/2018 08:58 AM 01/13/2018 08:59 AM x x x x x Not Reported Not Reported
01/13/2018 09:53 PM 28.94 26.24 19.94 48.74 25.16 68.0 Not Reported 0.45 N 0.00 N 1.57 NW No x No Precipitation 01/13/2018 08:58 AM 01/13/2018 08:59 AM x x x x x Not Reported Not Reported
01/13/2018 10:08 PM 28.76 26.06 19.76 48.74 25.16 68.0 Not Reported 0.00 N 0.00 N 0.22 N No x No Precipitation 01/13/2018 08:58 AM 01/13/2018 08:59 AM x x x x x Not Reported Not Reported
01/13/2018 10:23 PM 28.40 25.88 19.40 48.74 25.16 68.0 Not Reported 0.22 N 0.00 N 1.57 NW No x No Precipitation 01/13/2018 08:58 AM 01/13/2018 08:59 AM x x x x x Not Reported Not Reported
01/13/2018 10:38 PM 28.40 25.88 19.58 48.74 25.16 68.0 Not Reported 0.00 N 0.00 N 0.22 N No x No Precipitation 01/13/2018 08:58 AM 01/13/2018 08:59 AM x x x x x Not Reported Not Reported
01/13/2018 10:53 PM 28.58 25.88 19.76 48.74 25.16 68.0 Not Reported 0.00 NW 0.00 NW 0.67 N No x No Precipitation 01/13/2018 08:58 AM 01/13/2018 08:59 AM x x x x x Not Reported Not Reported
01/13/2018 11:08 PM 28.40 25.70 19.40 48.74 25.16 69.0 Not Reported 0.00 NW 0.00 NW 1.57 NW No x No Precipitation 01/13/2018 08:58 AM 01/13/2018 08:59 AM x x x x x Not Reported Not Reported
01/13/2018 11:23 PM 28.40 25.70 19.40 48.74 25.16 68.0 Not Reported 0.00 N 0.00 N 1.12 NW No x No Precipitation 01/13/2018 08:58 AM 01/13/2018 08:59 AM x x x x x Not Reported Not Reported
01/13/2018 11:38 PM 28.22 25.52 19.40 48.74 25.16 69.0 Not Reported 0.22 NW 0.22 NW 1.12 NW No x No Precipitation 01/13/2018 08:58 AM 01/13/2018 08:59 AM x x x x x Not Reported Not Reported
01/13/2018 11:53 PM 28.22 25.34 19.40 48.74 25.16 69.0 Not Reported 0.00 NW 0.00 NW 0.22 NW No x No Precipitation 01/13/2018 08:58 AM 01/13/2018 08:59 AM x x x x x Not Reported Not Reported